Quaker, Indiana
Current Conditions -  °F | °C
As of 8:15 AM on Friday 28 Nov 2014 (Local Time) from KPRG Reporting Station
Broken Clouds Broken Clouds  
Wind Chill: 14°   Ceiling: 7000
Heat Index: 22°   Visibility: 10mi
Dew Point: 18°   Wind: 7mph
Humidity: 83%   Direction: 140°SE
Pressure: 30.34"   Gusts: NA
Location:  39.7561°N, 87.4866°W
Report Text: KPRG 281315Z AUTO 14006KT 10SM BKN070 BKN110 M05/M08 A3034 RMK AO2 T10551080
Loading
Personal Weather Stations






























Interactive Weather Map New forecast layout! Learn more

10-Day Weather Forecast

Advertisements
Track Severe Weather on mobile